createdAt,value
2019-04-23T00:00:05.201Z,10.00
2019-04-23T00:02:20.487Z,10.14
2019-04-23T00:04:48.127Z,9.97
2019-04-23T00:07:39.637Z,10.09
2019-04-23T00:09:57.526Z,10.15
2019-04-23T00:12:40.490Z,9.81
2019-04-23T00:15:04.846Z,9.86
2019-04-23T00:20:06.759Z,9.94
2019-04-23T00:22:39.812Z,9.84
2019-04-23T00:27:59.461Z,9.58
2019-04-23T00:30:38.205Z,9.72
2019-04-23T00:32:56.015Z,9.67
2019-04-23T00:35:34.127Z,9.85
2019-04-23T00:38:06.596Z,9.90
2019-04-23T00:40:35.722Z,9.58
2019-04-23T00:43:03.365Z,9.66
2019-04-23T00:45:41.233Z,9.56
2019-04-23T00:48:14.882Z,9.54
2019-04-23T00:50:44.743Z,9.27
2019-04-23T00:53:12.610Z,9.35
2019-04-23T01:00:47.375Z,9.43
2019-04-23T01:03:17.475Z,9.42
2019-04-23T01:05:47.006Z,9.39
2019-04-23T01:11:04.665Z,9.26
2019-04-23T01:13:40.068Z,9.22
2019-04-23T01:16:05.759Z,9.41
2019-04-23T01:18:47.812Z,9.18
2019-04-23T01:20:58.520Z,9.42
2019-04-23T01:23:42.304Z,9.29
2019-04-23T01:26:30.402Z,9.32
2019-04-23T01:29:06.749Z,9.08
2019-04-23T01:31:39.893Z,9.16
2019-04-23T01:34:18.376Z,9.27
2019-04-23T01:36:36.435Z,9.22
2019-04-23T01:39:13.021Z,9.18
2019-04-23T01:41:45.400Z,9.06
2019-04-23T01:44:14.360Z,9.24
2019-04-23T01:46:49.154Z,9.31
2019-04-23T01:49:25.074Z,9.00
2019-04-23T01:54:18.891Z,8.93
2019-04-23T01:56:49.418Z,8.76
2019-04-23T01:59:26.327Z,8.72
2019-04-23T02:07:01.167Z,8.88
2019-04-23T02:09:48.242Z,8.68
2019-04-23T02:11:57.949Z,8.80
2019-04-23T02:14:34.925Z,8.79
2019-04-23T02:17:01.207Z,8.77
2019-04-23T02:19:42.449Z,8.68
2019-04-23T02:22:19.283Z,8.59
2019-04-23T02:24:48.116Z,8.60
2019-04-23T02:27:22.407Z,8.65
2019-04-23T02:32:31.802Z,8.83
2019-04-23T02:35:01.701Z,8.80
2019-04-23T02:37:36.332Z,8.82
2019-04-23T02:40:17.585Z,8.86
2019-04-23T02:47:32.595Z,9.00
2019-04-23T02:50:24.809Z,8.67
2019-04-23T02:52:37.261Z,8.40
2019-04-23T02:55:11.157Z,8.30
2019-04-23T02:57:35.550Z,8.28
2019-04-23T03:02:49.877Z,8.57
2019-04-23T03:10:16.235Z,8.42
2019-04-23T03:12:54.269Z,8.29
2019-04-23T03:20:59.508Z,8.23
2019-04-23T03:26:23.073Z,8.31
2019-04-23T03:41:21.764Z,8.32
2019-04-23T03:43:46.793Z,8.20
2019-04-23T03:48:47.880Z,8.29
2019-04-23T03:51:17.213Z,8.21
2019-04-23T03:56:41.587Z,7.90
2019-04-23T03:58:47.444Z,7.64
2019-04-23T04:01:34.745Z,7.82
2019-04-23T04:06:37.693Z,7.93
2019-04-23T04:09:09.773Z,7.86
2019-04-23T04:11:24.411Z,8.04
2019-04-23T04:14:14.314Z,8.18
2019-04-23T04:16:34.204Z,8.15
2019-04-23T04:19:06.529Z,8.05
2019-04-23T04:21:33.814Z,8.05
2019-04-23T04:24:13.190Z,7.95
2019-04-23T04:26:46.806Z,7.80
2019-04-23T04:31:52.246Z,7.81
2019-04-23T04:34:21.443Z,7.81
2019-04-23T04:39:10.080Z,7.87
2019-04-23T04:44:37.684Z,8.15
2019-04-23T04:46:49.947Z,8.10
2019-04-23T04:49:23.804Z,8.00
2019-04-23T04:54:21.591Z,8.20
2019-04-23T04:56:58.065Z,7.89
2019-04-23T04:59:27.246Z,7.98
2019-04-23T05:02:01.624Z,7.87
2019-04-23T05:04:33.132Z,7.80
2019-04-23T05:12:17.197Z,7.64
2019-04-23T05:14:33.722Z,7.72
2019-04-23T05:17:04.033Z,7.53
2019-04-23T05:24:35.319Z,7.64
2019-04-23T05:27:16.161Z,7.56
2019-04-23T05:29:46.604Z,7.42
2019-04-23T05:32:21.918Z,7.47
2019-04-23T05:34:50.321Z,7.48
2019-04-23T05:37:29.419Z,7.47
2019-04-23T05:40:00.411Z,7.46
2019-04-23T05:42:26.085Z,7.39
2019-04-23T05:45:00.936Z,7.34
2019-04-23T05:50:00.818Z,7.49
2019-04-23T05:52:43.823Z,7.29
2019-04-23T05:57:40.547Z,7.12
2019-04-23T06:00:19.449Z,7.18
2019-04-23T06:02:53.734Z,7.22
2019-04-23T06:05:38.777Z,7.12
2019-04-23T06:10:27.288Z,6.97
2019-04-23T06:12:57.748Z,7.08
2019-04-23T06:15:26.805Z,6.92
2019-04-23T06:20:57.607Z,6.83
2019-04-23T06:23:26.957Z,6.87
2019-04-23T06:26:22.418Z,6.92
2019-04-23T06:31:18.103Z,6.82
2019-04-23T06:33:52.357Z,6.77
2019-04-23T06:39:10.295Z,6.87
2019-04-23T06:41:44.514Z,6.88
2019-04-23T06:44:19.599Z,6.85
2019-04-23T06:46:52.174Z,6.71
2019-04-23T06:49:30.654Z,6.75
2019-04-23T06:54:42.452Z,6.84
2019-04-23T07:01:53.218Z,6.98
2019-04-23T07:03:14.722Z,7.06
2019-04-23T07:16:16.164Z,7.17
2019-04-23T07:18:46.466Z,6.90
2019-04-23T07:21:22.143Z,6.93
2019-04-23T07:24:26.348Z,6.94
2019-04-23T07:26:40.811Z,7.02
2019-04-23T07:29:15.944Z,7.08
2019-04-23T07:34:46.942Z,6.87
2019-04-23T07:38:28.700Z,6.88
2019-04-23T07:55:03.024Z,7.21
2019-04-23T07:58:01.986Z,7.41
2019-04-23T08:00:36.663Z,7.64
2019-04-23T08:03:14.317Z,7.72
2019-04-23T08:05:36.224Z,7.81
2019-04-23T08:08:11.635Z,7.94
2019-04-23T08:11:33.088Z,7.78
2019-04-23T08:16:58.149Z,7.87
2019-04-23T08:19:56.414Z,8.31
2019-04-23T08:31:09.954Z,8.36
2019-04-23T08:33:54.929Z,8.38
2019-04-23T08:36:29.448Z,8.16
2019-04-23T08:39:12.506Z,8.06
2019-04-23T08:45:13.286Z,8.39
2019-04-23T08:47:52.506Z,8.26
2019-04-23T08:50:18.843Z,8.27
2019-04-23T08:53:17.923Z,8.08
2019-04-23T08:55:44.195Z,8.16
2019-04-23T08:58:17.096Z,8.19
2019-04-23T09:00:52.649Z,8.14
2019-04-23T09:03:28.463Z,8.13
2019-04-23T09:08:39.305Z,7.95
2019-04-23T09:14:22.861Z,8.25
2019-04-23T09:16:57.786Z,8.37
2019-04-23T09:19:35.244Z,8.62
2019-04-23T09:28:48.825Z,8.55
2019-04-23T09:31:18.801Z,8.55
2019-04-23T09:34:09.766Z,8.86
2019-04-23T09:37:00.289Z,8.95
2019-04-23T09:39:46.944Z,8.99
2019-04-23T09:42:33.544Z,8.75
2019-04-23T09:45:13.015Z,8.55
2019-04-23T09:47:53.732Z,8.66
2019-04-23T09:53:33.937Z,8.66
2019-04-23T09:56:06.791Z,8.72
2019-04-23T09:58:39.552Z,8.83
2019-04-23T10:03:52.176Z,8.96
2019-04-23T10:06:18.256Z,8.72
2019-04-23T10:08:47.419Z,8.80
2019-04-23T10:11:15.930Z,8.80
2019-04-23T10:13:48.176Z,8.94
2019-04-23T10:16:21.368Z,9.06
2019-04-23T10:18:50.898Z,9.16
2019-04-23T10:21:45.069Z,9.21
2019-04-23T10:23:59.351Z,9.42
2019-04-23T10:26:32.254Z,9.56
2019-04-23T10:29:16.002Z,9.65
2019-04-23T10:31:46.079Z,9.96
2019-04-23T10:34:17.058Z,10.26
2019-04-23T10:36:47.423Z,10.62
2019-04-23T10:39:22.065Z,10.83
2019-04-23T10:41:52.668Z,10.98
2019-04-23T10:44:25.693Z,11.29
2019-04-23T10:50:31.670Z,11.68
2019-04-23T10:53:05.029Z,11.82
2019-04-23T10:58:36.811Z,11.10
2019-04-23T11:01:16.363Z,10.95
2019-04-23T11:04:02.203Z,11.00
2019-04-23T11:06:23.490Z,10.96
2019-04-23T11:08:55.913Z,10.82
2019-04-23T11:11:24.151Z,10.75
2019-04-23T11:14:09.697Z,10.99
2019-04-23T11:28:22.699Z,10.61
2019-04-23T11:30:45.320Z,10.74
2019-04-23T11:36:19.093Z,10.30
2019-04-23T11:38:48.623Z,10.28
2019-04-23T11:40:59.999Z,10.15
2019-04-23T11:46:34.084Z,10.07
2019-04-23T11:48:52.309Z,10.25
2019-04-23T11:51:43.711Z,10.46
2019-04-23T11:56:12.074Z,10.55
2019-04-23T11:58:42.945Z,10.65
2019-04-23T12:04:14.048Z,10.48
2019-04-23T12:06:59.706Z,10.49
2019-04-23T12:12:23.921Z,10.71
2019-04-23T12:17:33.028Z,10.96
2019-04-23T12:20:06.283Z,10.97
2019-04-23T12:23:08.871Z,11.22
2019-04-23T12:25:32.475Z,11.35
2019-04-23T12:27:46.981Z,11.53
2019-04-23T12:33:32.186Z,11.55
2019-04-23T12:35:35.198Z,11.70
2019-04-23T12:38:17.187Z,11.66
2019-04-23T12:40:38.457Z,11.57
2019-04-23T12:43:14.506Z,11.40
2019-04-23T12:45:47.023Z,11.22
2019-04-23T12:51:08.940Z,11.32
2019-04-23T12:53:37.936Z,11.01
2019-04-23T12:56:08.799Z,10.96
2019-04-23T12:58:44.993Z,11.08
2019-04-23T13:01:16.355Z,11.22
2019-04-23T13:03:55.701Z,11.24
2019-04-23T13:06:28.343Z,11.33
2019-04-23T13:09:21.964Z,11.18
2019-04-23T13:11:51.734Z,11.21
2019-04-23T13:14:30.463Z,11.34
2019-04-23T13:17:02.073Z,11.22
2019-04-23T13:19:44.871Z,11.42
2019-04-23T13:24:33.074Z,11.27
2019-04-23T13:27:02.473Z,11.20
2019-04-23T13:29:56.822Z,11.09
2019-04-23T13:32:29.266Z,11.03
2019-04-23T13:35:15.419Z,11.07
2019-04-23T13:37:40.447Z,11.04
2019-04-23T13:40:00.212Z,11.13
2019-04-23T13:45:53.031Z,11.46
2019-04-23T13:48:06.116Z,11.53
2019-04-23T13:50:42.058Z,11.32
2019-04-23T13:55:42.863Z,10.95
2019-04-23T13:58:32.597Z,10.79
2019-04-23T14:01:10.859Z,10.52
2019-04-23T14:03:40.796Z,10.53
2019-04-23T14:06:16.542Z,10.52
2019-04-23T14:11:23.301Z,10.52
2019-04-23T14:16:34.015Z,10.74
2019-04-23T14:18:56.229Z,10.88
2019-04-23T14:21:30.961Z,10.95
2019-04-23T14:28:53.395Z,10.85
2019-04-23T14:31:23.388Z,10.78
2019-04-23T14:39:22.244Z,10.74
2019-04-23T14:41:27.173Z,10.63
2019-04-23T14:44:08.164Z,10.71
2019-04-23T14:49:26.147Z,10.90
2019-04-23T14:51:47.825Z,10.87
2019-04-23T14:54:15.623Z,10.72
2019-04-23T14:56:44.850Z,11.04
2019-04-23T14:59:24.204Z,10.99
2019-04-23T15:01:49.018Z,11.01
2019-04-23T15:04:24.180Z,11.30
2019-04-23T15:09:30.328Z,11.67
2019-04-23T15:12:02.143Z,11.67
2019-04-23T15:17:03.656Z,11.66
2019-04-23T15:19:47.866Z,11.45
2019-04-23T15:22:13.493Z,11.34
2019-04-23T15:24:38.919Z,11.27
2019-04-23T15:29:31.902Z,11.30
2019-04-23T15:34:37.680Z,11.18
2019-04-23T15:39:47.569Z,10.99
2019-04-23T15:42:16.681Z,10.96
2019-04-23T15:44:49.035Z,10.90
2019-04-23T15:47:28.383Z,10.89
2019-04-23T15:49:59.096Z,10.74
2019-04-23T15:52:29.856Z,10.85
2019-04-23T15:55:03.688Z,10.87
2019-04-23T15:57:45.121Z,10.65
2019-04-23T16:00:02.221Z,10.62
2019-04-23T16:02:02.353Z,10.64
2019-04-23T16:04:33.634Z,10.56
2019-04-23T16:07:04.575Z,10.66
2019-04-23T16:10:12.648Z,10.78
2019-04-23T16:12:31.299Z,10.71
2019-04-23T16:17:27.840Z,10.76
2019-04-23T16:20:32.025Z,10.86
2019-04-23T16:22:52.721Z,10.69
2019-04-23T16:25:21.707Z,10.54
2019-04-23T16:28:04.233Z,10.72
2019-04-23T16:30:50.048Z,10.59
2019-04-23T16:33:10.184Z,10.57
2019-04-23T16:35:51.285Z,10.52
2019-04-23T16:38:26.711Z,10.49
2019-04-23T16:40:41.493Z,10.42
2019-04-23T16:45:51.320Z,10.22
2019-04-23T16:48:33.208Z,10.36
2019-04-23T16:51:11.099Z,10.33
2019-04-23T16:56:04.274Z,10.38
2019-04-23T16:58:54.588Z,10.32
2019-04-23T17:01:08.383Z,10.43
2019-04-23T17:03:39.880Z,10.42
2019-04-23T17:09:21.908Z,10.37
2019-04-23T17:11:41.785Z,10.37
2019-04-23T17:14:20.230Z,10.14
2019-04-23T17:16:42.638Z,10.28
2019-04-23T17:21:57.177Z,10.06
2019-04-23T17:26:57.372Z,9.98
2019-04-23T17:29:41.855Z,10.00
2019-04-23T17:31:45.164Z,10.01
2019-04-23T17:34:30.758Z,10.03
2019-04-23T17:37:07.314Z,10.08
2019-04-23T17:39:31.206Z,9.98
2019-04-23T17:47:20.471Z,9.79
2019-04-23T17:50:00.153Z,9.73
2019-04-23T17:52:22.335Z,9.64
2019-04-23T17:54:56.671Z,9.70
2019-04-23T17:57:26.295Z,9.66
2019-04-23T18:00:12.669Z,9.66
2019-04-23T18:02:51.819Z,9.71
2019-04-23T18:05:02.451Z,9.65
2019-04-23T18:10:17.875Z,9.66
2019-04-23T18:15:05.037Z,9.59
2019-04-23T18:17:43.284Z,9.65
2019-04-23T18:20:22.963Z,9.64
2019-04-23T18:23:00.433Z,9.53
2019-04-23T18:25:40.721Z,9.49
2019-04-23T18:28:00.214Z,9.64
2019-04-23T18:31:00.047Z,9.65
2019-04-23T18:34:00.614Z,9.65
2019-04-23T18:35:56.705Z,9.56
2019-04-23T18:43:43.938Z,9.43
2019-04-23T18:46:15.017Z,9.47
2019-04-23T18:51:07.793Z,9.38
2019-04-23T18:56:19.295Z,9.10
2019-04-23T18:58:54.536Z,9.15
2019-04-23T19:01:25.188Z,9.16
2019-04-23T19:09:10.418Z,9.24
2019-04-23T19:11:59.360Z,9.24
2019-04-23T19:14:27.216Z,9.30
2019-04-23T19:19:25.465Z,9.30
2019-04-23T19:24:28.744Z,9.29
2019-04-23T19:29:41.639Z,9.11
2019-04-23T19:31:56.901Z,9.04
2019-04-23T19:34:38.012Z,9.20
2019-04-23T19:39:36.797Z,9.10
2019-04-23T19:47:09.558Z,9.10
2019-04-23T19:52:10.883Z,9.03
2019-04-23T19:54:54.177Z,9.14
2019-04-23T19:57:19.456Z,8.98
2019-04-23T20:04:46.165Z,8.91
2019-04-23T20:12:25.130Z,9.05
2019-04-23T20:15:00.072Z,9.22
2019-04-23T20:19:55.019Z,8.84
2019-04-23T20:22:33.904Z,8.72
2019-04-23T20:27:33.747Z,9.12
2019-04-23T20:30:33.245Z,8.78
2019-04-23T20:35:34.828Z,8.74
2019-04-23T20:43:06.952Z,8.76
2019-04-23T20:45:46.936Z,8.74
2019-04-23T20:48:18.475Z,8.69
2019-04-23T20:50:47.093Z,8.67
2019-04-23T20:53:13.596Z,8.90
2019-04-23T20:56:01.900Z,9.07
2019-04-23T20:58:20.951Z,8.85
2019-04-23T21:00:59.268Z,8.99
2019-04-23T21:03:41.494Z,8.70
2019-04-23T21:06:01.892Z,8.72
2019-04-23T21:08:52.166Z,8.66
2019-04-23T21:10:55.481Z,8.64
2019-04-23T21:13:50.714Z,8.66
2019-04-23T21:16:04.976Z,8.77
2019-04-23T21:18:47.970Z,8.82
2019-04-23T21:21:13.577Z,8.74
2019-04-23T21:23:48.081Z,8.98
2019-04-23T21:26:01.998Z,9.03
2019-04-23T21:28:57.159Z,9.06
2019-04-23T21:31:22.832Z,8.87
2019-04-23T21:33:56.906Z,8.75
2019-04-23T21:36:43.429Z,8.65
2019-04-23T21:39:18.873Z,8.57
2019-04-23T21:44:28.915Z,8.78
2019-04-23T21:47:07.807Z,8.49
2019-04-23T21:49:40.769Z,8.58
2019-04-23T21:52:05.169Z,8.66
2019-04-23T21:54:32.243Z,8.55
2019-04-23T21:57:05.463Z,8.56
2019-04-23T21:59:36.327Z,8.32
2019-04-23T22:02:03.502Z,8.35
2019-04-23T22:04:41.430Z,8.06
2019-04-23T22:07:07.120Z,8.27
2019-04-23T22:09:43.717Z,8.08
2019-04-23T22:14:47.003Z,8.28
2019-04-23T22:17:15.072Z,8.05
2019-04-23T22:19:56.995Z,7.67
2019-04-23T22:22:16.293Z,7.80
2019-04-23T22:24:48.613Z,7.94
2019-04-23T22:27:16.764Z,7.60
2019-04-23T22:29:54.074Z,7.54
2019-04-23T22:32:30.816Z,7.51
2019-04-23T22:35:00.402Z,7.73
2019-04-23T22:37:24.165Z,7.84
2019-04-23T22:45:05.604Z,7.30
2019-04-23T22:47:34.665Z,7.31
2019-04-23T22:55:14.876Z,7.63
2019-04-23T22:58:05.110Z,7.67
2019-04-23T23:00:14.527Z,7.54
2019-04-23T23:03:09.786Z,7.44
2019-04-23T23:05:50.836Z,7.20
2019-04-23T23:08:10.823Z,7.29
2019-04-23T23:10:38.184Z,7.53
2019-04-23T23:15:44.978Z,7.08
2019-04-23T23:18:14.353Z,7.23
2019-04-23T23:20:46.363Z,7.31
2019-04-23T23:23:19.482Z,7.22
2019-04-23T23:25:49.275Z,7.09
2019-04-23T23:28:20.626Z,7.18
2019-04-23T23:30:56.396Z,7.18
2019-04-23T23:33:18.792Z,7.07
2019-04-23T23:35:53.560Z,7.05
2019-04-23T23:38:28.876Z,7.28
2019-04-23T23:41:05.323Z,7.67
2019-04-23T23:43:24.326Z,7.21
2019-04-23T23:46:07.942Z,7.48
2019-04-23T23:48:32.398Z,7.44
2019-04-23T23:51:12.025Z,7.61
2019-04-23T23:53:40.067Z,7.21
2019-04-23T23:56:11.259Z,7.42
2019-04-23T23:58:43.381Z,7.35
